SAVY/PMY METAR and TAF weather

Enter ICAO airport designator
Station Type Date Time Source
SAVY METAR 2021/01/16 10:20 UTC NOAA

SAVY 161020Z 20014KT 9999 SCT018 BKN050 11/10 Q1010


Station Type Date Time Source
SAVY Decoded METAR 2021/01/16 10:20 UTC NOAA

Puerto Madryn, CHT, Argentina (SAVY) 42-45-33S 065-06-10W
Jan 16, 2021 - 05:20 AM EST / 2021.01.16 1020 UTC
Wind: from the SSW (200 degrees) at 16 MPH (14 KT):0
Visibility: greater than 7 mile(s):0
Sky conditions: mostly cloudy
Temperature: 51 F (11 C)
Dew Point: 50 F (10 C)
Relative Humidity: 93%
Pressure (altimeter): 29.83 in. Hg (1010 hPa)
ob: SAVY 161020Z 20014KT 9999 SCT018 BKN050 11/10 Q1010
cycle: 10

Station Type Date Time Source
SAVY TAF UTC NOAA

Error!

Example: see airport list